עמוד ראשי
METAR-TAF:

METAR-TAF

שדות תעופה :

La Ceiba, הונדורס

קו רוחב: 15-44N, קו אורך: 086-52W, גובה: 3מטר

תצפית מזג אוויר נוכחית

הדו"ח נערך לפני 1 שעות ו 0דקות, בשעה 05:00 UTC
רוח 3קשר מכיוון דרום/דרום-מערב
טמפרטורת 28 צלסיוס
לחות 84%
לחץ 1009 hPa
ראות: 4000מטר
עשן,

METAR: MHLC 260500Z 21003KT 4000 FU NSC 28/25 Q1009 A2980 NOSIG

זמן: 00:00 (06:00 UTC)

תחזית

הדו"ח נערך לפני 1 שעות ו 0דקות, בשעה 05:00 UTC
תחזית בתוקף מ 26 ב 06 UTC עד 27 ב 06 UTC
רוח 3קשר עם כיוונים משתנים
ראות: 4000מטר
מעט עננים בגובה 2400רגל
עשן
יעשה מ
26 ב 18 UTC עד 26 ב 20 UTC
רוח 10קשר מכיוון מזרח/צפון-מזרח
יעשה מ
27 ב 02 UTC עד 27 ב 04 UTC
רוח 2קשר עם כיוונים משתנים

TAF: MHLC 260500Z 2606/2706 VRB03KT 4000 FU FEW024 TX34/2619Z TN26/2612Z BECMG 2618/2620 07010KT BECMG 2702/2704 VRB02KT

תצפיות ותחזיות מזג אוויר לגבי יותר מ- 4,000 שדות תעופה ברחבי העולם. דוחות METAR ו- TAF.

התחנות הזמינות מסומנות בנקודות צהובות ואדומות על גבי המפה.

העבר את העכבר לנקודה הצבעונית על מנת לראות את שם התחנה.

לאחר מכן, לחץ כדי לראות את תוכן ואת תחזיות מזג האוויר.

כדי לשנות את המפה: לחץ על הכפתורים הירוקים עם הפלוס השחור כדי להתקרב; על הכפתור הירוק עם המקף כדי להתרחק; או בחיצים הירוקים למפות סמוכות.


METAR-TAF: